sensor_id;sensor_type;location;lat;lon;timestamp;P1;durP1;ratioP1;P2;durP2;ratioP2
24151;SDS011;12311;50.866;4.332;2023-04-25T00:01:20;3.28;;;1.38;;
24151;SDS011;12311;50.866;4.332;2023-04-25T00:03:47;5.57;;;1.75;;
24151;SDS011;12311;50.866;4.332;2023-04-25T00:06:13;9.73;;;2.67;;
24151;SDS011;12311;50.866;4.332;2023-04-25T00:08:38;24.73;;;2.55;;
24151;SDS011;12311;50.866;4.332;2023-04-25T00:11:04;9.35;;;2.22;;
24151;SDS011;12311;50.866;4.332;2023-04-25T00:13:30;10.25;;;2.05;;
24151;SDS011;12311;50.866;4.332;2023-04-25T00:15:56;8.43;;;1.20;;
24151;SDS011;12311;50.866;4.332;2023-04-25T00:18:23;7.65;;;1.52;;
24151;SDS011;12311;50.866;4.332;2023-04-25T00:20:49;7.50;;;2.30;;
24151;SDS011;12311;50.866;4.332;2023-04-25T00:23:15;3.65;;;1.42;;
24151;SDS011;12311;50.866;4.332;2023-04-25T00:25:49;3.55;;;1.45;;
24151;SDS011;12311;50.866;4.332;2023-04-25T00:28:16;1.77;;;1.10;;
24151;SDS011;12311;50.866;4.332;2023-04-25T00:30:42;4.03;;;1.63;;
24151;SDS011;12311;50.866;4.332;2023-04-25T00:33:08;9.68;;;1.60;;
24151;SDS011;12311;50.866;4.332;2023-04-25T00:35:35;1.23;;;0.82;;
24151;SDS011;12311;50.866;4.332;2023-04-25T00:38:01;4.25;;;1.70;;
24151;SDS011;12311;50.866;4.332;2023-04-25T00:40:27;6.15;;;1.90;;
24151;SDS011;12311;50.866;4.332;2023-04-25T00:42:53;2.50;;;1.20;;
24151;SDS011;12311;50.866;4.332;2023-04-25T00:45:19;9.48;;;1.35;;
24151;SDS011;12311;50.866;4.332;2023-04-25T00:47:45;5.15;;;1.52;;
24151;SDS011;12311;50.866;4.332;2023-04-25T00:50:12;5.30;;;1.70;;
24151;SDS011;12311;50.866;4.332;2023-04-25T00:52:39;4.22;;;1.20;;
24151;SDS011;12311;50.866;4.332;2023-04-25T00:55:08;16.92;;;1.98;;
24151;SDS011;12311;50.866;4.332;2023-04-25T00:57:35;11.73;;;2.13;;
24151;SDS011;12311;50.866;4.332;2023-04-25T01:00:01;2.47;;;1.60;;
24151;SDS011;12311;50.866;4.332;2023-04-25T01:02:27;8.30;;;1.52;;
24151;SDS011;12311;50.866;4.332;2023-04-25T01:04:54;1.58;;;0.85;;
24151;SDS011;12311;50.866;4.332;2023-04-25T01:07:20;5.50;;;2.33;;
24151;SDS011;12311;50.866;4.332;2023-04-25T01:09:46;3.20;;;1.10;;
24151;SDS011;12311;50.866;4.332;2023-04-25T01:12:12;10.43;;;1.98;;
24151;SDS011;12311;50.866;4.332;2023-04-25T01:14:39;8.10;;;1.45;;
24151;SDS011;12311;50.866;4.332;2023-04-25T01:17:05;4.80;;;1.30;;
24151;SDS011;12311;50.866;4.332;2023-04-25T01:19:32;5.53;;;1.60;;
24151;SDS011;12311;50.866;4.332;2023-04-25T01:21:58;6.75;;;1.85;;
24151;SDS011;12311;50.866;4.332;2023-04-25T01:24:24;1.95;;;1.20;;
24151;SDS011;12311;50.866;4.332;2023-04-25T01:26:51;7.43;;;2.17;;
24151;SDS011;12311;50.866;4.332;2023-04-25T01:29:18;2.83;;;1.33;;
24151;SDS011;12311;50.866;4.332;2023-04-25T01:31:45;8.70;;;1.77;;
24151;SDS011;12311;50.866;4.332;2023-04-25T01:34:11;5.18;;;1.35;;
24151;SDS011;12311;50.866;4.332;2023-04-25T01:36:37;6.82;;;1.77;;
24151;SDS011;12311;50.866;4.332;2023-04-25T01:39:03;6.18;;;1.35;;
24151;SDS011;12311;50.866;4.332;2023-04-25T01:41:30;3.55;;;1.50;;
24151;SDS011;12311;50.866;4.332;2023-04-25T01:43:56;17.25;;;1.85;;
24151;SDS011;12311;50.866;4.332;2023-04-25T01:46:22;3.90;;;1.30;;
24151;SDS011;12311;50.866;4.332;2023-04-25T01:48:48;3.00;;;1.42;;
24151;SDS011;12311;50.866;4.332;2023-04-25T01:51:13;2.88;;;1.45;;
24151;SDS011;12311;50.866;4.332;2023-04-25T01:53:40;3.55;;;1.15;;
24151;SDS011;12311;50.866;4.332;2023-04-25T01:56:07;7.50;;;1.30;;
24151;SDS011;12311;50.866;4.332;2023-04-25T01:58:33;16.95;;;1.50;;
24151;SDS011;12311;50.866;4.332;2023-04-25T02:00:58;3.25;;;1.00;;
24151;SDS011;12311;50.866;4.332;2023-04-25T02:03:25;1.35;;;1.13;;
24151;SDS011;12311;50.866;4.332;2023-04-25T02:05:51;9.73;;;1.40;;
24151;SDS011;12311;50.866;4.332;2023-04-25T02:08:17;24.45;;;2.00;;
24151;SDS011;12311;50.866;4.332;2023-04-25T02:10:43;2.50;;;1.17;;
24151;SDS011;12311;50.866;4.332;2023-04-25T02:13:09;14.98;;;1.75;;
24151;SDS011;12311;50.866;4.332;2023-04-25T02:15:35;2.55;;;1.00;;
24151;SDS011;12311;50.866;4.332;2023-04-25T02:18:00;4.65;;;1.60;;
24151;SDS011;12311;50.866;4.332;2023-04-25T02:20:27;2.25;;;1.30;;
24151;SDS011;12311;50.866;4.332;2023-04-25T02:22:53;7.32;;;1.00;;
24151;SDS011;12311;50.866;4.332;2023-04-25T02:25:19;3.55;;;1.38;;
24151;SDS011;12311;50.866;4.332;2023-04-25T02:27:45;2.55;;;1.25;;
24151;SDS011;12311;50.866;4.332;2023-04-25T02:30:12;2.60;;;1.08;;
24151;SDS011;12311;50.866;4.332;2023-04-25T02:32:38;2.92;;;1.20;;
24151;SDS011;12311;50.866;4.332;2023-04-25T02:35:05;12.20;;;1.92;;
24151;SDS011;12311;50.866;4.332;2023-04-25T02:37:32;4.97;;;1.10;;
24151;SDS011;12311;50.866;4.332;2023-04-25T02:39:58;4.22;;;1.50;;
24151;SDS011;12311;50.866;4.332;2023-04-25T02:42:26;6.28;;;1.83;;
24151;SDS011;12311;50.866;4.332;2023-04-25T02:44:52;13.15;;;2.45;;
24151;SDS011;12311;50.866;4.332;2023-04-25T02:47:18;7.15;;;0.93;;
24151;SDS011;12311;50.866;4.332;2023-04-25T02:49:43;8.48;;;1.45;;
24151;SDS011;12311;50.866;4.332;2023-04-25T02:52:10;3.72;;;1.73;;
24151;SDS011;12311;50.866;4.332;2023-04-25T02:54:36;9.85;;;1.88;;
24151;SDS011;12311;50.866;4.332;2023-04-25T02:57:01;5.70;;;1.55;;
24151;SDS011;12311;50.866;4.332;2023-04-25T02:59:27;6.70;;;1.83;;
24151;SDS011;12311;50.866;4.332;2023-04-25T03:01:53;1.65;;;1.25;;
24151;SDS011;12311;50.866;4.332;2023-04-25T03:04:19;4.88;;;1.30;;
24151;SDS011;12311;50.866;4.332;2023-04-25T03:06:46;5.75;;;1.98;;
24151;SDS011;12311;50.866;4.332;2023-04-25T03:09:12;8.00;;;2.25;;
24151;SDS011;12311;50.866;4.332;2023-04-25T03:11:40;6.93;;;1.50;;
24151;SDS011;12311;50.866;4.332;2023-04-25T03:14:06;6.00;;;1.30;;
24151;SDS011;12311;50.866;4.332;2023-04-25T03:16:32;7.95;;;2.22;;
24151;SDS011;12311;50.866;4.332;2023-04-25T03:18:57;3.63;;;1.83;;
24151;SDS011;12311;50.866;4.332;2023-04-25T03:21:23;5.57;;;1.27;;
24151;SDS011;12311;50.866;4.332;2023-04-25T03:23:49;7.70;;;1.55;;
24151;SDS011;12311;50.866;4.332;2023-04-25T03:26:15;6.97;;;0.93;;
24151;SDS011;12311;50.866;4.332;2023-04-25T03:28:41;6.03;;;1.35;;
24151;SDS011;12311;50.866;4.332;2023-04-25T03:31:07;3.33;;;1.33;;
24151;SDS011;12311;50.866;4.332;2023-04-25T03:33:32;5.53;;;1.10;;
24151;SDS011;12311;50.866;4.332;2023-04-25T03:35:58;3.35;;;1.60;;
24151;SDS011;12311;50.866;4.332;2023-04-25T03:38:24;8.77;;;1.88;;
24151;SDS011;12311;50.866;4.332;2023-04-25T03:40:50;13.90;;;2.03;;
24151;SDS011;12311;50.866;4.332;2023-04-25T03:43:16;9.48;;;1.77;;
24151;SDS011;12311;50.866;4.332;2023-04-25T03:45:42;3.75;;;1.00;;
24151;SDS011;12311;50.866;4.332;2023-04-25T03:48:08;1.58;;;1.10;;
24151;SDS011;12311;50.866;4.332;2023-04-25T03:50:33;7.90;;;1.20;;
24151;SDS011;12311;50.866;4.332;2023-04-25T03:52:59;2.50;;;1.38;;
24151;SDS011;12311;50.866;4.332;2023-04-25T03:55:25;18.52;;;3.08;;
24151;SDS011;12311;50.866;4.332;2023-04-25T03:57:51;2.25;;;1.58;;
24151;SDS011;12311;50.866;4.332;2023-04-25T04:00:16;6.82;;;1.63;;
24151;SDS011;12311;50.866;4.332;2023-04-25T04:02:42;6.85;;;1.40;;
24151;SDS011;12311;50.866;4.332;2023-04-25T04:05:08;3.45;;;1.45;;
24151;SDS011;12311;50.866;4.332;2023-04-25T04:07:34;3.03;;;1.38;;
24151;SDS011;12311;50.866;4.332;2023-04-25T04:10:05;7.78;;;1.90;;
24151;SDS011;12311;50.866;4.332;2023-04-25T04:12:35;10.70;;;1.75;;
24151;SDS011;12311;50.866;4.332;2023-04-25T04:15:01;5.60;;;1.23;;
24151;SDS011;12311;50.866;4.332;2023-04-25T04:17:28;2.05;;;1.35;;
24151;SDS011;12311;50.866;4.332;2023-04-25T04:19:54;2.38;;;1.60;;
24151;SDS011;12311;50.866;4.332;2023-04-25T04:22:21;1.67;;;1.05;;
24151;SDS011;12311;50.866;4.332;2023-04-25T04:24:47;2.92;;;1.38;;
24151;SDS011;12311;50.866;4.332;2023-04-25T04:27:12;8.20;;;1.15;;
24151;SDS011;12311;50.866;4.332;2023-04-25T04:29:38;5.63;;;1.15;;
24151;SDS011;12311;50.866;4.332;2023-04-25T04:32:04;8.82;;;2.17;;
24151;SDS011;12311;50.866;4.332;2023-04-25T04:34:30;4.65;;;1.65;;
24151;SDS011;12311;50.866;4.332;2023-04-25T04:36:56;3.08;;;1.30;;
24151;SDS011;12311;50.866;4.332;2023-04-25T04:39:22;3.78;;;1.25;;
24151;SDS011;12311;50.866;4.332;2023-04-25T04:41:48;3.72;;;1.45;;
24151;SDS011;12311;50.866;4.332;2023-04-25T04:44:14;4.13;;;1.00;;
24151;SDS011;12311;50.866;4.332;2023-04-25T04:46:40;4.55;;;1.70;;
24151;SDS011;12311;50.866;4.332;2023-04-25T04:49:09;5.28;;;1.70;;
24151;SDS011;12311;50.866;4.332;2023-04-25T04:51:36;2.78;;;1.52;;
24151;SDS011;12311;50.866;4.332;2023-04-25T04:54:03;6.50;;;1.50;;
24151;SDS011;12311;50.866;4.332;2023-04-25T04:56:29;8.85;;;2.15;;
24151;SDS011;12311;50.866;4.332;2023-04-25T04:58:58;7.50;;;1.25;;
24151;SDS011;12311;50.866;4.332;2023-04-25T05:01:24;4.72;;;1.55;;
24151;SDS011;12311;50.866;4.332;2023-04-25T05:03:51;7.28;;;1.35;;
24151;SDS011;12311;50.866;4.332;2023-04-25T05:06:18;2.78;;;1.08;;
24151;SDS011;12311;50.866;4.332;2023-04-25T05:08:44;2.17;;;1.45;;
24151;SDS011;12311;50.866;4.332;2023-04-25T05:11:10;1.50;;;1.15;;
24151;SDS011;12311;50.866;4.332;2023-04-25T05:13:36;8.70;;;1.80;;
24151;SDS011;12311;50.866;4.332;2023-04-25T05:16:02;3.97;;;1.33;;
24151;SDS011;12311;50.866;4.332;2023-04-25T05:18:27;6.55;;;1.92;;
24151;SDS011;12311;50.866;4.332;2023-04-25T05:20:53;3.42;;;1.02;;
24151;SDS011;12311;50.866;4.332;2023-04-25T05:23:19;5.07;;;2.53;;
24151;SDS011;12311;50.866;4.332;2023-04-25T05:25:45;3.33;;;1.75;;
24151;SDS011;12311;50.866;4.332;2023-04-25T05:28:12;1.33;;;1.00;;
24151;SDS011;12311;50.866;4.332;2023-04-25T05:30:38;5.45;;;1.10;;
24151;SDS011;12311;50.866;4.332;2023-04-25T05:33:04;7.65;;;1.38;;
24151;SDS011;12311;50.866;4.332;2023-04-25T05:35:29;4.70;;;1.80;;
24151;SDS011;12311;50.866;4.332;2023-04-25T05:37:55;4.97;;;1.42;;
24151;SDS011;12311;50.866;4.332;2023-04-25T05:40:21;5.22;;;1.98;;
24151;SDS011;12311;50.866;4.332;2023-04-25T05:42:46;2.67;;;1.70;;
24151;SDS011;12311;50.866;4.332;2023-04-25T05:45:12;2.78;;;1.50;;
24151;SDS011;12311;50.866;4.332;2023-04-25T05:47:38;16.80;;;2.80;;
24151;SDS011;12311;50.866;4.332;2023-04-25T05:50:04;6.82;;;1.77;;
24151;SDS011;12311;50.866;4.332;2023-04-25T05:52:30;1.42;;;1.08;;
24151;SDS011;12311;50.866;4.332;2023-04-25T05:54:56;4.20;;;1.13;;
24151;SDS011;12311;50.866;4.332;2023-04-25T05:57:22;3.25;;;1.15;;
24151;SDS011;12311;50.866;4.332;2023-04-25T05:59:50;6.05;;;2.53;;
24151;SDS011;12311;50.866;4.332;2023-04-25T06:02:16;8.50;;;1.65;;
24151;SDS011;12311;50.866;4.332;2023-04-25T06:04:42;6.90;;;1.52;;
24151;SDS011;12311;50.866;4.332;2023-04-25T06:07:08;2.70;;;1.40;;
24151;SDS011;12311;50.866;4.332;2023-04-25T06:09:34;2.88;;;1.65;;
24151;SDS011;12311;50.866;4.332;2023-04-25T06:12:00;10.80;;;1.52;;
24151;SDS011;12311;50.866;4.332;2023-04-25T06:14:26;2.10;;;1.02;;
24151;SDS011;12311;50.866;4.332;2023-04-25T06:16:52;3.30;;;1.70;;
24151;SDS011;12311;50.866;4.332;2023-04-25T06:19:18;4.90;;;1.48;;
24151;SDS011;12311;50.866;4.332;2023-04-25T06:21:44;7.13;;;1.88;;
24151;SDS011;12311;50.866;4.332;2023-04-25T06:24:09;2.03;;;1.10;;
24151;SDS011;12311;50.866;4.332;2023-04-25T06:26:35;10.52;;;1.42;;
24151;SDS011;12311;50.866;4.332;2023-04-25T06:29:01;9.07;;;1.67;;
24151;SDS011;12311;50.866;4.332;2023-04-25T06:31:27;2.33;;;1.23;;
24151;SDS011;12311;50.866;4.332;2023-04-25T06:33:54;2.55;;;1.63;;
24151;SDS011;12311;50.866;4.332;2023-04-25T06:36:20;2.67;;;1.27;;
24151;SDS011;12311;50.866;4.332;2023-04-25T06:38:50;1.73;;;0.95;;
24151;SDS011;12311;50.866;4.332;2023-04-25T06:41:17;1.50;;;1.17;;
24151;SDS011;12311;50.866;4.332;2023-04-25T06:43:43;7.95;;;2.65;;
24151;SDS011;12311;50.866;4.332;2023-04-25T06:46:08;4.55;;;1.40;;
24151;SDS011;12311;50.866;4.332;2023-04-25T06:48:34;3.25;;;1.13;;
24151;SDS011;12311;50.866;4.332;2023-04-25T06:51:00;3.13;;;1.17;;
24151;SDS011;12311;50.866;4.332;2023-04-25T06:53:25;6.82;;;1.23;;
24151;SDS011;12311;50.866;4.332;2023-04-25T06:55:51;3.85;;;1.15;;
24151;SDS011;12311;50.866;4.332;2023-04-25T06:58:17;5.90;;;1.67;;
24151;SDS011;12311;50.866;4.332;2023-04-25T07:00:43;5.50;;;1.10;;
24151;SDS011;12311;50.866;4.332;2023-04-25T07:03:08;4.28;;;1.02;;
24151;SDS011;12311;50.866;4.332;2023-04-25T07:05:34;6.68;;;1.20;;
24151;SDS011;12311;50.866;4.332;2023-04-25T07:08:00;9.90;;;2.83;;
24151;SDS011;12311;50.866;4.332;2023-04-25T07:10:26;4.28;;;1.23;;
24151;SDS011;12311;50.866;4.332;2023-04-25T07:12:51;2.65;;;1.13;;
24151;SDS011;12311;50.866;4.332;2023-04-25T07:15:17;1.20;;;0.88;;
24151;SDS011;12311;50.866;4.332;2023-04-25T07:17:43;3.47;;;1.38;;
24151;SDS011;12311;50.866;4.332;2023-04-25T07:20:09;7.65;;;1.20;;
24151;SDS011;12311;50.866;4.332;2023-04-25T07:22:35;2.15;;;0.73;;
24151;SDS011;12311;50.866;4.332;2023-04-25T07:25:01;3.03;;;1.20;;
24151;SDS011;12311;50.866;4.332;2023-04-25T07:27:27;2.58;;;0.88;;
24151;SDS011;12311;50.866;4.332;2023-04-25T07:29:52;4.25;;;1.00;;
24151;SDS011;12311;50.866;4.332;2023-04-25T07:32:18;3.90;;;1.40;;
24151;SDS011;12311;50.866;4.332;2023-04-25T07:34:44;3.35;;;1.48;;
24151;SDS011;12311;50.866;4.332;2023-04-25T07:37:10;1.85;;;0.80;;
24151;SDS011;12311;50.866;4.332;2023-04-25T07:39:36;2.65;;;1.20;;
24151;SDS011;12311;50.866;4.332;2023-04-25T07:42:02;14.18;;;1.67;;
24151;SDS011;12311;50.866;4.332;2023-04-25T07:44:28;4.60;;;0.63;;
24151;SDS011;12311;50.866;4.332;2023-04-25T07:46:55;1.38;;;0.68;;
24151;SDS011;12311;50.866;4.332;2023-04-25T07:49:21;5.35;;;0.82;;
24151;SDS011;12311;50.866;4.332;2023-04-25T07:51:47;5.47;;;0.90;;
24151;SDS011;12311;50.866;4.332;2023-04-25T07:54:13;5.18;;;1.17;;
24151;SDS011;12311;50.866;4.332;2023-04-25T07:56:40;3.85;;;2.13;;
24151;SDS011;12311;50.866;4.332;2023-04-25T07:59:06;4.72;;;1.45;;
24151;SDS011;12311;50.866;4.332;2023-04-25T08:01:32;2.20;;;0.77;;
24151;SDS011;12311;50.866;4.332;2023-04-25T08:03:59;2.30;;;1.20;;
24151;SDS011;12311;50.866;4.332;2023-04-25T08:06:24;1.55;;;1.20;;
24151;SDS011;12311;50.866;4.332;2023-04-25T08:08:50;4.75;;;0.85;;
24151;SDS011;12311;50.866;4.332;2023-04-25T08:11:16;0.57;;;0.57;;
24151;SDS011;12311;50.866;4.332;2023-04-25T08:13:42;3.30;;;1.20;;
24151;SDS011;12311;50.866;4.332;2023-04-25T08:16:07;2.53;;;1.17;;
24151;SDS011;12311;50.866;4.332;2023-04-25T08:18:33;2.03;;;1.10;;
24151;SDS011;12311;50.866;4.332;2023-04-25T08:20:59;2.95;;;1.13;;
24151;SDS011;12311;50.866;4.332;2023-04-25T08:23:24;13.13;;;1.70;;
24151;SDS011;12311;50.866;4.332;2023-04-25T08:25:50;5.20;;;0.98;;
24151;SDS011;12311;50.866;4.332;2023-04-25T08:28:16;3.75;;;0.95;;
24151;SDS011;12311;50.866;4.332;2023-04-25T08:30:42;1.45;;;1.02;;
24151;SDS011;12311;50.866;4.332;2023-04-25T08:33:07;7.00;;;1.70;;
24151;SDS011;12311;50.866;4.332;2023-04-25T08:35:33;1.58;;;0.90;;
24151;SDS011;12311;50.866;4.332;2023-04-25T08:37:59;1.92;;;1.63;;
24151;SDS011;12311;50.866;4.332;2023-04-25T08:40:26;5.25;;;0.93;;
24151;SDS011;12311;50.866;4.332;2023-04-25T08:42:55;1.45;;;1.17;;
24151;SDS011;12311;50.866;4.332;2023-04-25T08:45:22;1.48;;;0.70;;
24151;SDS011;12311;50.866;4.332;2023-04-25T08:47:51;2.03;;;1.08;;
24151;SDS011;12311;50.866;4.332;2023-04-25T08:50:18;1.15;;;0.60;;
24151;SDS011;12311;50.866;4.332;2023-04-25T08:52:46;8.93;;;1.15;;
24151;SDS011;12311;50.866;4.332;2023-04-25T08:55:13;4.32;;;0.80;;
24151;SDS011;12311;50.866;4.332;2023-04-25T08:57:41;2.15;;;0.93;;
24151;SDS011;12311;50.866;4.332;2023-04-25T09:00:11;1.27;;;0.80;;
24151;SDS011;12311;50.866;4.332;2023-04-25T09:02:38;1.45;;;0.85;;
24151;SDS011;12311;50.866;4.332;2023-04-25T09:05:05;0.90;;;0.80;;
24151;SDS011;12311;50.866;4.332;2023-04-25T09:07:32;4.28;;;1.25;;
24151;SDS011;12311;50.866;4.332;2023-04-25T09:09:58;1.85;;;0.88;;
24151;SDS011;12311;50.866;4.332;2023-04-25T09:12:28;5.35;;;1.00;;
24151;SDS011;12311;50.866;4.332;2023-04-25T09:15:27;13.88;;;1.08;;
24151;SDS011;12311;50.866;4.332;2023-04-25T09:20:19;2.22;;;0.95;;
24151;SDS011;12311;50.866;4.332;2023-04-25T09:22:45;3.67;;;0.80;;
24151;SDS011;12311;50.866;4.332;2023-04-25T09:25:11;0.60;;;0.60;;
24151;SDS011;12311;50.866;4.332;2023-04-25T09:27:51;3.47;;;1.15;;
24151;SDS011;12311;50.866;4.332;2023-04-25T09:30:19;0.68;;;0.57;;
24151;SDS011;12311;50.866;4.332;2023-04-25T09:33:05;2.60;;;1.05;;
24151;SDS011;12311;50.866;4.332;2023-04-25T09:35:38;1.15;;;0.90;;
24151;SDS011;12311;50.866;4.332;2023-04-25T09:38:12;4.65;;;0.60;;
24151;SDS011;12311;50.866;4.332;2023-04-25T09:40:42;2.20;;;0.80;;
24151;SDS011;12311;50.866;4.332;2023-04-25T09:43:19;5.27;;;1.40;;
24151;SDS011;12311;50.866;4.332;2023-04-25T09:45:46;2.70;;;1.00;;
24151;SDS011;12311;50.866;4.332;2023-04-25T09:48:21;10.80;;;0.98;;
24151;SDS011;12311;50.866;4.332;2023-04-25T09:53:36;3.80;;;0.75;;
24151;SDS011;12311;50.866;4.332;2023-04-25T09:56:06;0.70;;;0.70;;
24151;SDS011;12311;50.866;4.332;2023-04-25T09:58:34;2.67;;;1.48;;
24151;SDS011;12311;50.866;4.332;2023-04-25T10:01:02;2.40;;;0.90;;
24151;SDS011;12311;50.866;4.332;2023-04-25T10:03:31;1.05;;;0.73;;
24151;SDS011;12311;50.866;4.332;2023-04-25T10:05:59;0.90;;;0.50;;
24151;SDS011;12311;50.866;4.332;2023-04-25T10:08:27;5.43;;;0.70;;
24151;SDS011;12311;50.866;4.332;2023-04-25T10:11:00;2.35;;;0.80;;
24151;SDS011;12311;50.866;4.332;2023-04-25T10:13:28;0.70;;;0.60;;
24151;SDS011;12311;50.866;4.332;2023-04-25T10:15:54;0.95;;;0.73;;
24151;SDS011;12311;50.866;4.332;2023-04-25T10:18:22;0.70;;;0.70;;
24151;SDS011;12311;50.866;4.332;2023-04-25T10:20:49;2.88;;;0.50;;
24151;SDS011;12311;50.866;4.332;2023-04-25T10:23:15;3.70;;;0.65;;
24151;SDS011;12311;50.866;4.332;2023-04-25T10:25:42;2.40;;;0.70;;
24151;SDS011;12311;50.866;4.332;2023-04-25T10:28:08;1.30;;;0.50;;
24151;SDS011;12311;50.866;4.332;2023-04-25T10:30:33;1.15;;;0.40;;
24151;SDS011;12311;50.866;4.332;2023-04-25T10:32:59;1.35;;;0.70;;
24151;SDS011;12311;50.866;4.332;2023-04-25T10:35:28;1.48;;;0.70;;
24151;SDS011;12311;50.866;4.332;2023-04-25T10:40:31;0.80;;;0.80;;
24151;SDS011;12311;50.866;4.332;2023-04-25T10:46:02;2.47;;;0.57;;
24151;SDS011;12311;50.866;4.332;2023-04-25T10:51:16;2.63;;;0.50;;
24151;SDS011;12311;50.866;4.332;2023-04-25T10:56:38;1.08;;;0.63;;
24151;SDS011;12311;50.866;4.332;2023-04-25T10:59:10;2.92;;;0.85;;
24151;SDS011;12311;50.866;4.332;2023-04-25T11:01:38;3.95;;;0.90;;
24151;SDS011;12311;50.866;4.332;2023-04-25T11:04:30;2.10;;;0.68;;
24151;SDS011;12311;50.866;4.332;2023-04-25T11:09:41;4.80;;;1.10;;
24151;SDS011;12311;50.866;4.332;2023-04-25T11:12:07;1.38;;;0.70;;
24151;SDS011;12311;50.866;4.332;2023-04-25T11:14:34;0.65;;;0.65;;
24151;SDS011;12311;50.866;4.332;2023-04-25T11:17:00;3.00;;;0.80;;
24151;SDS011;12311;50.866;4.332;2023-04-25T11:19:27;2.50;;;1.13;;
24151;SDS011;12311;50.866;4.332;2023-04-25T11:21:57;0.90;;;0.60;;
24151;SDS011;12311;50.866;4.332;2023-04-25T11:24:28;0.80;;;0.65;;
24151;SDS011;12311;50.866;4.332;2023-04-25T11:26:55;2.80;;;0.70;;
24151;SDS011;12311;50.866;4.332;2023-04-25T11:29:23;0.50;;;0.50;;
24151;SDS011;12311;50.866;4.332;2023-04-25T11:31:54;8.23;;;1.20;;
24151;SDS011;12311;50.866;4.332;2023-04-25T11:34:26;3.72;;;1.02;;
24151;SDS011;12311;50.866;4.332;2023-04-25T11:36:52;0.40;;;0.40;;
24151;SDS011;12311;50.866;4.332;2023-04-25T11:39:18;1.05;;;0.60;;
24151;SDS011;12311;50.866;4.332;2023-04-25T11:41:44;1.75;;;0.63;;
24151;SDS011;12311;50.866;4.332;2023-04-25T11:44:11;0.70;;;0.68;;
24151;SDS011;12311;50.866;4.332;2023-04-25T11:46:40;1.67;;;0.75;;
24151;SDS011;12311;50.866;4.332;2023-04-25T11:49:05;1.45;;;0.52;;
24151;SDS011;12311;50.866;4.332;2023-04-25T11:51:37;1.27;;;0.60;;
24151;SDS011;12311;50.866;4.332;2023-04-25T11:54:07;0.80;;;0.40;;
24151;SDS011;12311;50.866;4.332;2023-04-25T11:56:32;0.30;;;0.30;;
24151;SDS011;12311;50.866;4.332;2023-04-25T12:01:32;0.43;;;0.40;;
24151;SDS011;12311;50.866;4.332;2023-04-25T12:04:09;0.80;;;0.50;;
24151;SDS011;12311;50.866;4.332;2023-04-25T12:06:41;4.80;;;0.75;;
24151;SDS011;12311;50.866;4.332;2023-04-25T12:09:11;3.03;;;0.70;;
24151;SDS011;12311;50.866;4.332;2023-04-25T12:11:44;0.88;;;0.88;;
24151;SDS011;12311;50.866;4.332;2023-04-25T12:14:12;0.43;;;0.40;;
24151;SDS011;12311;50.866;4.332;2023-04-25T12:16:46;0.93;;;0.50;;
24151;SDS011;12311;50.866;4.332;2023-04-25T12:19:13;0.70;;;0.50;;
24151;SDS011;12311;50.866;4.332;2023-04-25T12:21:40;3.72;;;0.70;;
24151;SDS011;12311;50.866;4.332;2023-04-25T12:24:12;0.50;;;0.50;;
24151;SDS011;12311;50.866;4.332;2023-04-25T12:26:50;1.55;;;0.90;;
24151;SDS011;12311;50.866;4.332;2023-04-25T12:29:23;2.17;;;0.77;;
24151;SDS011;12311;50.866;4.332;2023-04-25T12:31:50;1.67;;;0.73;;
24151;SDS011;12311;50.866;4.332;2023-04-25T12:34:18;0.55;;;0.45;;
24151;SDS011;12311;50.866;4.332;2023-04-25T12:36:44;2.22;;;0.70;;
24151;SDS011;12311;50.866;4.332;2023-04-25T12:39:17;0.50;;;0.38;;
24151;SDS011;12311;50.866;4.332;2023-04-25T12:41:44;0.98;;;0.75;;
24151;SDS011;12311;50.866;4.332;2023-04-25T12:44:10;1.27;;;0.50;;
24151;SDS011;12311;50.866;4.332;2023-04-25T12:46:37;0.70;;;0.52;;
24151;SDS011;12311;50.866;4.332;2023-04-25T12:49:03;0.40;;;0.30;;
24151;SDS011;12311;50.866;4.332;2023-04-25T12:51:29;0.98;;;0.70;;
24151;SDS011;12311;50.866;4.332;2023-04-25T12:53:55;2.78;;;0.40;;
24151;SDS011;12311;50.866;4.332;2023-04-25T12:56:21;1.00;;;0.68;;
24151;SDS011;12311;50.866;4.332;2023-04-25T12:58:47;0.43;;;0.35;;
24151;SDS011;12311;50.866;4.332;2023-04-25T13:01:13;2.17;;;0.65;;
24151;SDS011;12311;50.866;4.332;2023-04-25T13:03:39;1.27;;;0.60;;
24151;SDS011;12311;50.866;4.332;2023-04-25T13:06:06;0.40;;;0.40;;
24151;SDS011;12311;50.866;4.332;2023-04-25T13:08:32;0.68;;;0.43;;
24151;SDS011;12311;50.866;4.332;2023-04-25T13:10:58;1.60;;;0.50;;
24151;SDS011;12311;50.866;4.332;2023-04-25T13:13:23;1.38;;;0.45;;
24151;SDS011;12311;50.866;4.332;2023-04-25T13:15:49;2.10;;;0.60;;
24151;SDS011;12311;50.866;4.332;2023-04-25T13:18:15;1.67;;;0.70;;
24151;SDS011;12311;50.866;4.332;2023-04-25T13:20:41;5.68;;;1.40;;
24151;SDS011;12311;50.866;4.332;2023-04-25T13:23:06;2.03;;;0.68;;
24151;SDS011;12311;50.866;4.332;2023-04-25T13:25:32;1.20;;;0.63;;
24151;SDS011;12311;50.866;4.332;2023-04-25T13:27:58;2.97;;;0.40;;
24151;SDS011;12311;50.866;4.332;2023-04-25T13:30:23;2.38;;;0.40;;
24151;SDS011;12311;50.866;4.332;2023-04-25T13:32:49;1.45;;;0.68;;
24151;SDS011;12311;50.866;4.332;2023-04-25T13:35:16;1.08;;;0.40;;
24151;SDS011;12311;50.866;4.332;2023-04-25T13:37:42;0.80;;;0.55;;
24151;SDS011;12311;50.866;4.332;2023-04-25T13:40:09;1.10;;;0.73;;
24151;SDS011;12311;50.866;4.332;2023-04-25T13:42:39;0.50;;;0.30;;
24151;SDS011;12311;50.866;4.332;2023-04-25T13:45:05;2.75;;;0.30;;
24151;SDS011;12311;50.866;4.332;2023-04-25T13:47:32;2.72;;;0.73;;
24151;SDS011;12311;50.866;4.332;2023-04-25T13:50:02;0.57;;;0.40;;
24151;SDS011;12311;50.866;4.332;2023-04-25T13:52:30;0.77;;;0.50;;
24151;SDS011;12311;50.866;4.332;2023-04-25T13:54:56;3.70;;;0.50;;
24151;SDS011;12311;50.866;4.332;2023-04-25T13:57:22;2.83;;;0.40;;
24151;SDS011;12311;50.866;4.332;2023-04-25T13:59:48;2.75;;;0.77;;
24151;SDS011;12311;50.866;4.332;2023-04-25T14:02:15;0.40;;;0.40;;
24151;SDS011;12311;50.866;4.332;2023-04-25T14:04:41;2.05;;;1.00;;
24151;SDS011;12311;50.866;4.332;2023-04-25T14:07:07;1.50;;;0.60;;
24151;SDS011;12311;50.866;4.332;2023-04-25T14:09:33;1.33;;;0.40;;
24151;SDS011;12311;50.866;4.332;2023-04-25T14:11:59;0.73;;;0.60;;
24151;SDS011;12311;50.866;4.332;2023-04-25T14:14:25;2.17;;;0.47;;
24151;SDS011;12311;50.866;4.332;2023-04-25T14:16:51;0.68;;;0.45;;
24151;SDS011;12311;50.866;4.332;2023-04-25T14:19:19;0.98;;;0.50;;
24151;SDS011;12311;50.866;4.332;2023-04-25T14:21:48;2.03;;;0.70;;
24151;SDS011;12311;50.866;4.332;2023-04-25T14:24:14;1.15;;;0.70;;
24151;SDS011;12311;50.866;4.332;2023-04-25T14:26:40;2.67;;;0.57;;
24151;SDS011;12311;50.866;4.332;2023-04-25T14:29:07;0.60;;;0.60;;
24151;SDS011;12311;50.866;4.332;2023-04-25T14:31:34;1.88;;;0.50;;
24151;SDS011;12311;50.866;4.332;2023-04-25T14:34:00;0.88;;;0.60;;
24151;SDS011;12311;50.866;4.332;2023-04-25T14:36:30;2.35;;;0.50;;
24151;SDS011;12311;50.866;4.332;2023-04-25T14:38:57;4.10;;;0.50;;
24151;SDS011;12311;50.866;4.332;2023-04-25T14:41:24;0.90;;;0.40;;
24151;SDS011;12311;50.866;4.332;2023-04-25T14:43:50;2.25;;;0.40;;
24151;SDS011;12311;50.866;4.332;2023-04-25T14:46:16;2.30;;;0.35;;
24151;SDS011;12311;50.866;4.332;2023-04-25T14:48:41;2.20;;;0.40;;
24151;SDS011;12311;50.866;4.332;2023-04-25T14:51:07;0.82;;;0.40;;
24151;SDS011;12311;50.866;4.332;2023-04-25T14:53:33;1.63;;;0.43;;
24151;SDS011;12311;50.866;4.332;2023-04-25T14:55:59;0.60;;;0.40;;
24151;SDS011;12311;50.866;4.332;2023-04-25T14:58:24;1.15;;;0.40;;
24151;SDS011;12311;50.866;4.332;2023-04-25T15:00:50;1.77;;;0.50;;
24151;SDS011;12311;50.866;4.332;2023-04-25T15:03:16;0.40;;;0.40;;
24151;SDS011;12311;50.866;4.332;2023-04-25T15:05:42;1.40;;;0.82;;
24151;SDS011;12311;50.866;4.332;2023-04-25T15:08:08;1.17;;;0.60;;